Bolu, Turkey
Current Conditions -  °F | °C
As of 2:50 PM on Thursday 29 Jan 2015 (Local Time) from LTBQ Reporting Station
Scattered Clouds Scattered Clouds  
Wind Chill: 55°   Ceiling: Unl
Heat Index: 55°   Visibility: 6mi
Dew Point: 37°   Wind: 3mph
Humidity: 51%   Direction: NA
Pressure: 29.77"   Gusts: NA
Location:  40.75°N, 31.61°E
Report Text: LTBQ 291150Z VRB03KT 9999 FEW030 SCT120 13/03 Q1008 NOSIG
Loading
Personal Weather Stations






























Interactive Weather Map New forecast layout! Learn more

10-Day Weather Forecast

Advertisements
Track Severe Weather on mobile